Time;durP1;ratioP1;P1;durP2;ratioP2;P2;SDS_P1;SDS_P2;PMS_P1;PMS_P2;Temp;Humidity;BMP_temperature;BMP_pressure;BME280_temperature;BME280_humidity;BME280_pressure;Samples;Min_cycle;Max_cycle;Signal;HPM_P1;HPM_P2
2023/04/12 00:01:07;;;;;;;0.80;0.80;;;;;;;;;;5094648;28;20287;-82
2023/04/12 00:03:35;;;;;;;0.68;0.68;;;;;;;;;;5105589;28;20718;-81
2023/04/12 00:06:06;;;;;;;0.73;0.73;;;;;;;;;;5107199;28;20224;-81
2023/04/12 00:08:34;;;;;;;0.75;0.73;;;;;;;;;;5110510;28;20220;-82
2023/04/12 00:11:02;;;;;;;0.60;0.60;;;;;;;;;;5110167;28;20204;-81
2023/04/12 00:13:30;;;;;;;2.58;1.15;;;;;;;;;;5110064;28;20220;-82
2023/04/12 00:15:58;;;;;;;0.90;0.90;;;;;;;;;;5109074;28;20288;-81
2023/04/12 00:18:26;;;;;;;1.10;1.00;;;;;;;;;;5099913;28;20239;-82
2023/04/12 00:20:54;;;;;;;0.88;0.77;;;;;;;;;;5097138;28;20196;-81
2023/04/12 00:23:22;;;;;;;1.33;1.20;;;;;;;;;;5095641;28;20220;-82
2023/04/12 00:25:50;;;;;;;1.02;1.02;;;;;;;;;;5094645;28;20243;-80
2023/04/12 00:28:19;;;;;;;1.50;1.40;;;;;;;;;;5094861;28;20307;-79
2023/04/12 00:30:47;;;;;;;1.73;1.42;;;;;;;;;;5094588;28;20196;-81
2023/04/12 00:33:14;;;;;;;1.90;1.40;;;;;;;;;;5095251;28;20201;-80
2023/04/12 00:35:41;;;;;;;2.17;1.50;;;;;;;;;;5096211;28;20220;-80
2023/04/12 00:38:09;;;;;;;2.40;1.65;;;;;;;;;;5099628;28;20236;-79
2023/04/12 00:40:37;;;;;;;3.97;2.30;;;;;;;;;;5096795;28;20210;-81
2023/04/12 00:43:06;;;;;;;3.90;2.10;;;;;;;;;;5095205;28;20204;-81
2023/04/12 00:45:36;;;;;;;1.75;1.48;;;;;;;;;;5094475;28;20250;-82
2023/04/12 00:48:04;;;;;;;2.80;2.05;;;;;;;;;;5094590;28;20653;-81
2023/04/12 00:50:32;;;;;;;2.38;2.17;;;;;;;;;;5093972;28;20577;-80
2023/04/12 00:53:00;;;;;;;2.13;1.92;;;;;;;;;;5093625;28;20287;-80
2023/04/12 00:55:27;;;;;;;2.13;1.92;;;;;;;;;;5094136;28;20259;-80
2023/04/12 00:57:54;;;;;;;3.33;2.17;;;;;;;;;;5093248;28;20287;-81
2023/04/12 01:00:23;;;;;;;2.80;2.30;;;;;;;;;;5092790;28;20615;-81
2023/04/12 01:02:52;;;;;;;1.80;1.70;;;;;;;;;;5093232;28;20667;-81
2023/04/12 01:05:22;;;;;;;2.95;2.30;;;;;;;;;;5093919;28;20231;-81
2023/04/12 01:07:55;;;;;;;2.20;1.70;;;;;;;;;;5093319;28;20287;-81
2023/04/12 01:10:34;;;;;;;2.53;2.20;;;;;;;;;;5093514;28;20226;-82
2023/04/12 01:13:10;;;;;;;1.63;1.50;;;;;;;;;;5093591;28;20226;-81
2023/04/12 01:15:45;;;;;;;2.67;1.77;;;;;;;;;;5093345;28;20722;-81
2023/04/12 01:18:18;;;;;;;2.00;1.52;;;;;;;;;;5093277;28;20298;-81
2023/04/12 01:20:53;;;;;;;1.65;1.55;;;;;;;;;;5093580;28;20290;-81
2023/04/12 01:23:43;;;;;;;1.92;1.83;;;;;;;;;;5092877;28;20199;-80
2023/04/12 01:26:26;;;;;;;1.55;1.45;;;;;;;;;;5093625;28;20224;-81
2023/04/12 01:28:56;;;;;;;2.08;1.88;;;;;;;;;;5093130;28;20243;-81
2023/04/12 01:31:24;;;;;;;1.90;1.80;;;;;;;;;;5093135;28;20204;-80
2023/04/12 01:33:52;;;;;;;2.15;1.35;;;;;;;;;;5093136;28;20254;-80
2023/04/12 01:36:22;;;;;;;2.33;2.13;;;;;;;;;;5092904;28;20766;-81
2023/04/12 01:38:50;;;;;;;2.72;1.90;;;;;;;;;;5092724;28;20196;-81
2023/04/12 01:41:18;;;;;;;1.85;1.70;;;;;;;;;;5093202;28;20301;-80
2023/04/12 01:43:47;;;;;;;1.83;1.73;;;;;;;;;;5093343;28;20291;-81
2023/04/12 01:46:18;;;;;;;1.65;1.42;;;;;;;;;;5093087;28;20226;-81
2023/04/12 01:48:50;;;;;;;3.58;1.88;;;;;;;;;;5092628;28;20208;-81
2023/04/12 01:51:28;;;;;;;2.05;1.90;;;;;;;;;;5092670;28;20203;-81
2023/04/12 01:53:59;;;;;;;1.58;1.48;;;;;;;;;;5092448;28;20192;-81
2023/04/12 01:56:31;;;;;;;2.05;1.83;;;;;;;;;;5092987;28;20227;-80
2023/04/12 01:59:01;;;;;;;2.33;1.90;;;;;;;;;;5092785;28;20211;-79
2023/04/12 02:01:30;;;;;;;1.70;1.60;;;;;;;;;;5092354;28;20200;-80
2023/04/12 02:03:59;;;;;;;3.03;1.75;;;;;;;;;;5092857;28;20291;-81
2023/04/12 02:06:27;;;;;;;1.52;1.42;;;;;;;;;;5092780;28;20220;-80
2023/04/12 02:08:58;;;;;;;1.40;1.30;;;;;;;;;;5092603;28;20200;-80
2023/04/12 02:11:26;;;;;;;1.92;1.60;;;;;;;;;;5093147;28;20197;-81
2023/04/12 02:13:53;;;;;;;1.42;1.10;;;;;;;;;;5092258;28;20292;-80
2023/04/12 02:16:21;;;;;;;1.10;1.00;;;;;;;;;;5092392;28;20311;-80
2023/04/12 02:18:50;;;;;;;4.03;1.63;;;;;;;;;;5099201;28;20219;-81
2023/04/12 02:21:18;;;;;;;1.10;1.00;;;;;;;;;;5104341;28;20272;-81
2023/04/12 02:23:45;;;;;;;2.42;1.08;;;;;;;;;;5105740;28;20224;-81
2023/04/12 02:26:13;;;;;;;3.67;1.48;;;;;;;;;;5106692;28;20213;-81
2023/04/12 02:28:40;;;;;;;1.23;1.15;;;;;;;;;;5105808;28;20196;-82
2023/04/12 02:31:08;;;;;;;1.50;1.23;;;;;;;;;;5104430;28;20220;-82
2023/04/12 02:33:36;;;;;;;1.00;1.00;;;;;;;;;;5103667;28;20264;-82
2023/04/12 02:36:06;;;;;;;1.20;1.10;;;;;;;;;;5105957;28;20252;-81
2023/04/12 02:38:33;;;;;;;2.05;1.52;;;;;;;;;;5106399;28;20216;-82
2023/04/12 02:41:01;;;;;;;2.55;1.00;;;;;;;;;;5106510;28;20264;-82
2023/04/12 02:43:28;;;;;;;3.13;1.55;;;;;;;;;;5101193;28;20204;-80
2023/04/12 02:45:56;;;;;;;2.55;1.40;;;;;;;;;;5096857;28;20662;-80
2023/04/12 02:48:23;;;;;;;1.38;1.10;;;;;;;;;;5094697;28;20287;-80
2023/04/12 02:50:51;;;;;;;1.83;1.13;;;;;;;;;;5091141;28;20311;-81
2023/04/12 02:53:20;;;;;;;2.45;1.30;;;;;;;;;;5096169;28;20605;-80
2023/04/12 02:55:48;;;;;;;1.65;1.13;;;;;;;;;;5096591;28;20243;-81
2023/04/12 02:58:15;;;;;;;6.60;1.33;;;;;;;;;;5095751;28;20764;-80
2023/04/12 03:00:44;;;;;;;1.77;1.10;;;;;;;;;;5096209;28;20201;-80
2023/04/12 03:03:12;;;;;;;1.02;1.00;;;;;;;;;;5096448;28;20566;-80
2023/04/12 03:05:39;;;;;;;3.35;1.48;;;;;;;;;;5095895;28;20216;-80
2023/04/12 03:08:07;;;;;;;1.90;1.30;;;;;;;;;;5095952;28;20366;-81
2023/04/12 03:10:36;;;;;;;2.80;1.17;;;;;;;;;;5095965;28;20780;-81
2023/04/12 03:13:03;;;;;;;5.03;1.30;;;;;;;;;;5095659;28;20743;-81
2023/04/12 03:15:31;;;;;;;1.00;0.90;;;;;;;;;;5095304;28;20239;-81
2023/04/12 03:17:58;;;;;;;1.83;1.27;;;;;;;;;;5095833;28;20771;-82
2023/04/12 03:20:27;;;;;;;2.35;1.48;;;;;;;;;;5095797;28;20286;-81
2023/04/12 03:22:54;;;;;;;1.33;1.08;;;;;;;;;;5105987;28;20203;-81
2023/04/12 03:25:22;;;;;;;2.33;1.25;;;;;;;;;;5119924;28;20272;-82
2023/04/12 03:27:50;;;;;;;2.13;1.25;;;;;;;;;;5119077;28;20244;-82
2023/04/12 03:30:18;;;;;;;1.33;1.17;;;;;;;;;;5118611;28;20220;-82
2023/04/12 03:32:45;;;;;;;1.92;1.50;;;;;;;;;;5119383;28;20212;-81
2023/04/12 03:35:13;;;;;;;2.33;1.10;;;;;;;;;;5118314;28;20221;-82
2023/04/12 03:37:42;;;;;;;0.93;0.93;;;;;;;;;;5105185;28;20231;-81
2023/04/12 03:40:10;;;;;;;1.63;0.80;;;;;;;;;;5099752;28;20207;-82
2023/04/12 03:42:38;;;;;;;3.22;1.98;;;;;;;;;;5100448;28;20279;-82
2023/04/12 03:45:08;;;;;;;3.35;1.15;;;;;;;;;;5104929;28;20307;-81
2023/04/12 03:47:35;;;;;;;0.77;0.77;;;;;;;;;;5099878;28;20207;-82
2023/04/12 03:50:06;;;;;;;1.95;1.00;;;;;;;;;;5095926;28;20200;-82
2023/04/12 03:52:33;;;;;;;1.65;1.10;;;;;;;;;;5096257;28;20563;-81
2023/04/12 03:55:01;;;;;;;2.75;1.33;;;;;;;;;;5095533;28;20295;-81
2023/04/12 03:57:28;;;;;;;0.88;0.88;;;;;;;;;;5095559;28;20204;-82
2023/04/12 03:59:56;;;;;;;1.92;1.33;;;;;;;;;;5095703;28;20618;-81
2023/04/12 04:02:25;;;;;;;2.30;1.15;;;;;;;;;;5094608;28;20288;-81
2023/04/12 04:04:52;;;;;;;1.73;1.17;;;;;;;;;;5095136;28;20255;-82
2023/04/12 04:07:20;;;;;;;2.72;1.13;;;;;;;;;;5094777;28;20288;-80
2023/04/12 04:09:48;;;;;;;2.75;1.38;;;;;;;;;;5094690;28;20200;-81
2023/04/12 04:12:16;;;;;;;7.03;1.90;;;;;;;;;;5095249;28;20220;-82
2023/04/12 04:14:43;;;;;;;2.00;1.48;;;;;;;;;;5094727;28;20307;-81
2023/04/12 04:17:11;;;;;;;3.40;1.50;;;;;;;;;;5085896;28;20204;-81
2023/04/12 04:19:39;;;;;;;2.15;1.95;;;;;;;;;;5074650;28;20213;-81
2023/04/12 04:22:08;;;;;;;1.50;1.08;;;;;;;;;;5075191;28;20211;-82
2023/04/12 04:24:37;;;;;;;1.42;1.33;;;;;;;;;;5074284;28;20196;-81
2023/04/12 04:27:05;;;;;;;2.30;1.70;;;;;;;;;;5074815;28;20205;-81
2023/04/12 04:29:32;;;;;;;1.35;1.25;;;;;;;;;;5073615;28;20288;-81
2023/04/12 04:32:00;;;;;;;1.90;1.33;;;;;;;;;;5073541;28;20224;-81
2023/04/12 04:34:28;;;;;;;1.13;1.13;;;;;;;;;;5073546;28;20770;-82
2023/04/12 04:36:57;;;;;;;1.30;1.20;;;;;;;;;;5073506;28;20290;-81
2023/04/12 04:39:26;;;;;;;3.90;1.48;;;;;;;;;;5073133;28;20618;-81
2023/04/12 04:41:54;;;;;;;1.77;1.60;;;;;;;;;;5073657;28;20208;-81
2023/04/12 04:44:21;;;;;;;2.33;1.40;;;;;;;;;;5072589;28;20216;-81
2023/04/12 04:46:50;;;;;;;2.38;1.63;;;;;;;;;;5078309;28;20206;-81
2023/04/12 04:49:17;;;;;;;3.97;2.05;;;;;;;;;;5093221;28;20204;-81
2023/04/12 04:51:45;;;;;;;4.07;1.80;;;;;;;;;;5093075;28;20224;-82
2023/04/12 04:54:15;;;;;;;2.08;1.90;;;;;;;;;;5093142;28;20200;-81
2023/04/12 04:56:42;;;;;;;2.40;1.98;;;;;;;;;;5116640;22;20230;-80
2023/04/12 04:59:10;;;;;;;2.47;1.50;;;;;;;;;;5096652;28;20268;-80
2023/04/12 05:01:37;;;;;;;3.80;1.55;;;;;;;;;;5099774;28;20216;-79
2023/04/12 05:04:05;;;;;;;2.35;1.50;;;;;;;;;;5098615;28;20218;-80
2023/04/12 05:06:33;;;;;;;3.38;2.10;;;;;;;;;;5099211;28;20230;-80
2023/04/12 05:09:00;;;;;;;4.40;1.88;;;;;;;;;;5098724;28;20661;-80
2023/04/12 05:11:29;;;;;;;2.90;1.83;;;;;;;;;;5099838;28;20264;-80
2023/04/12 05:13:57;;;;;;;2.75;1.33;;;;;;;;;;5099019;28;20240;-80
2023/04/12 05:16:24;;;;;;;2.08;1.38;;;;;;;;;;5099249;28;20216;-79
2023/04/12 05:18:51;;;;;;;1.88;1.67;;;;;;;;;;5097703;28;20283;-79
2023/04/12 05:21:19;;;;;;;2.22;1.67;;;;;;;;;;5099672;28;20280;-80
2023/04/12 05:23:47;;;;;;;4.22;1.92;;;;;;;;;;5100845;28;20295;-78
2023/04/12 05:26:15;;;;;;;4.95;1.80;;;;;;;;;;5100127;28;20306;-80
2023/04/12 05:28:44;;;;;;;3.42;1.73;;;;;;;;;;5100224;28;20200;-79
2023/04/12 05:31:12;;;;;;;2.38;1.52;;;;;;;;;;5098987;28;20234;-80
2023/04/12 05:33:39;;;;;;;1.75;1.48;;;;;;;;;;5100491;28;20222;-79
2023/04/12 05:36:07;;;;;;;5.22;1.90;;;;;;;;;;5099830;28;20283;-79
2023/04/12 05:38:35;;;;;;;2.85;1.95;;;;;;;;;;5100308;28;20232;-79
2023/04/12 05:41:03;;;;;;;2.25;1.60;;;;;;;;;;5097551;28;20287;-83
2023/04/12 05:43:31;;;;;;;2.40;1.70;;;;;;;;;;5093698;28;20215;-83
2023/04/12 05:46:00;;;;;;;3.30;2.35;;;;;;;;;;5093432;28;20224;-83
2023/04/12 05:48:28;;;;;;;2.80;2.33;;;;;;;;;;5093357;28;20698;-83
2023/04/12 05:50:55;;;;;;;3.88;2.65;;;;;;;;;;5092830;28;20755;-81
2023/04/12 05:53:23;;;;;;;4.90;2.45;;;;;;;;;;5093531;28;20263;-84
2023/04/12 05:55:53;;;;;;;3.13;1.92;;;;;;;;;;5094320;28;20671;-83
2023/04/12 05:58:20;;;;;;;2.15;1.88;;;;;;;;;;5093432;28;20207;-83
2023/04/12 06:00:48;;;;;;;2.03;1.83;;;;;;;;;;5093435;28;20264;-82
2023/04/12 06:03:17;;;;;;;1.98;1.73;;;;;;;;;;5093246;28;20203;-82
2023/04/12 06:05:44;;;;;;;1.70;1.40;;;;;;;;;;5093839;28;20648;-82
2023/04/12 06:08:13;;;;;;;1.48;1.25;;;;;;;;;;5093572;28;20212;-83
2023/04/12 06:10:41;;;;;;;2.30;1.60;;;;;;;;;;5094921;28;20207;-83
2023/04/12 06:13:08;;;;;;;3.08;1.73;;;;;;;;;;5097577;28;20303;-82
2023/04/12 06:15:36;;;;;;;3.33;2.40;;;;;;;;;;5097482;28;20326;-82
2023/04/12 06:18:03;;;;;;;2.70;1.73;;;;;;;;;;5098101;28;20294;-82
2023/04/12 06:20:32;;;;;;;1.38;1.27;;;;;;;;;;5098246;28;20287;-82
2023/04/12 06:23:00;;;;;;;3.00;1.60;;;;;;;;;;5096701;28;20231;-83
2023/04/12 06:25:28;;;;;;;2.58;1.67;;;;;;;;;;5084355;28;20609;-81
2023/04/12 06:27:55;;;;;;;10.65;2.20;;;;;;;;;;5084417;28;20189;-83
2023/04/12 06:30:23;;;;;;;3.25;1.77;;;;;;;;;;5076735;28;20292;-83
2023/04/12 06:32:50;;;;;;;3.15;1.75;;;;;;;;;;5076248;28;20725;-82
2023/04/12 06:35:19;;;;;;;5.10;1.50;;;;;;;;;;5076404;28;20680;-81
2023/04/12 06:37:47;;;;;;;3.35;1.70;;;;;;;;;;5089327;28;20197;-81
2023/04/12 06:40:15;;;;;;;3.75;1.85;;;;;;;;;;5087470;28;20284;-81
2023/04/12 06:42:42;;;;;;;4.63;1.77;;;;;;;;;;5093585;28;20220;-80
2023/04/12 06:45:11;;;;;;;2.70;1.58;;;;;;;;;;5108539;28;20754;-80
2023/04/12 06:47:38;;;;;;;2.03;1.30;;;;;;;;;;5110231;28;20264;-80
2023/04/12 06:50:07;;;;;;;4.00;1.10;;;;;;;;;;5110980;28;20231;-81
2023/04/12 06:52:35;;;;;;;3.58;1.80;;;;;;;;;;5109076;28;20273;-81
2023/04/12 06:55:04;;;;;;;2.30;1.40;;;;;;;;;;5110030;28;20248;-80
2023/04/12 06:57:32;;;;;;;3.08;1.35;;;;;;;;;;5101445;28;20204;-83
2023/04/12 07:00:00;;;;;;;2.70;1.50;;;;;;;;;;5097922;28;20200;-83
2023/04/12 07:02:27;;;;;;;1.65;1.40;;;;;;;;;;5096944;28;20200;-82
2023/04/12 07:04:55;;;;;;;2.38;1.85;;;;;;;;;;5080314;28;20706;-82
2023/04/12 07:07:22;;;;;;;3.10;2.80;;;;;;;;;;5076672;28;20215;-81
2023/04/12 07:09:51;;;;;;;2.97;1.65;;;;;;;;;;5076107;28;20715;-82
2023/04/12 07:12:19;;;;;;;2.85;1.30;;;;;;;;;;5076679;28;20221;-83
2023/04/12 07:14:47;;;;;;;7.25;2.75;;;;;;;;;;5076469;28;20321;-81
2023/04/12 07:17:14;;;;;;;3.47;1.83;;;;;;;;;;5087680;28;20641;-82
2023/04/12 07:19:43;;;;;;;2.38;1.42;;;;;;;;;;5095627;28;20287;-83
2023/04/12 07:22:10;;;;;;;5.07;2.40;;;;;;;;;;5094292;28;20671;-83
2023/04/12 07:24:38;;;;;;;1.80;1.45;;;;;;;;;;5095577;28;20232;-83
2023/04/12 07:27:13;;;;;;;2.22;1.33;;;;;;;;;;5094698;28;20287;-82
2023/04/12 07:29:47;;;;;;;4.60;1.63;;;;;;;;;;5095245;28;20249;-82
2023/04/12 07:32:17;;;;;;;1.73;1.40;;;;;;;;;;5095382;28;20206;-82
2023/04/12 07:34:45;;;;;;;3.60;1.35;;;;;;;;;;5094825;28;20199;-81
2023/04/12 07:37:12;;;;;;;1.42;1.20;;;;;;;;;;5094792;28;20199;-83
2023/04/12 07:39:40;;;;;;;2.08;1.98;;;;;;;;;;5095299;28;20200;-82
2023/04/12 07:42:08;;;;;;;1.83;1.50;;;;;;;;;;5095632;28;20231;-82
2023/04/12 07:44:36;;;;;;;1.35;1.25;;;;;;;;;;5094931;28;20200;-82
2023/04/12 07:47:06;;;;;;;1.67;1.35;;;;;;;;;;5093874;28;20303;-83
2023/04/12 07:49:33;;;;;;;1.75;1.50;;;;;;;;;;5095307;28;20235;-83
2023/04/12 07:52:00;;;;;;;4.50;1.92;;;;;;;;;;5093900;28;20205;-82
2023/04/12 07:54:29;;;;;;;1.50;1.23;;;;;;;;;;5094628;28;20311;-82
2023/04/12 07:57:01;;;;;;;2.88;1.40;;;;;;;;;;5093786;28;20318;-82
2023/04/12 07:59:29;;;;;;;1.30;1.20;;;;;;;;;;5094062;28;20232;-81
2023/04/12 08:01:56;;;;;;;9.32;1.98;;;;;;;;;;5094665;28;20204;-81
2023/04/12 08:04:26;;;;;;;1.60;1.50;;;;;;;;;;5096158;28;20204;-83
2023/04/12 08:06:54;;;;;;;1.02;1.00;;;;;;;;;;5096167;28;20222;-83
2023/04/12 08:09:23;;;;;;;1.95;1.13;;;;;;;;;;5096189;28;20286;-84
2023/04/12 08:11:51;;;;;;;1.63;1.20;;;;;;;;;;5095551;28;20205;-83
2023/04/12 08:14:18;;;;;;;1.77;1.23;;;;;;;;;;5095308;28;20232;-84
2023/04/12 08:16:46;;;;;;;1.30;1.20;;;;;;;;;;5091103;28;20262;-85
2023/04/12 08:19:13;;;;;;;1.35;1.25;;;;;;;;;;5097444;28;20200;-85
2023/04/12 08:21:42;;;;;;;1.42;1.33;;;;;;;;;;5081327;28;20288;-84
2023/04/12 08:24:09;;;;;;;2.92;1.20;;;;;;;;;;5073852;28;20236;-83
2023/04/12 08:26:37;;;;;;;2.03;1.65;;;;;;;;;;5073986;28;20221;-84
2023/04/12 08:29:05;;;;;;;1.30;1.20;;;;;;;;;;5074813;28;20582;-83
2023/04/12 08:31:33;;;;;;;1.38;1.10;;;;;;;;;;5074162;28;20205;-83
2023/04/12 08:34:01;;;;;;;1.13;1.10;;;;;;;;;;5074713;28;20227;-87
2023/04/12 08:36:28;;;;;;;1.30;1.20;;;;;;;;;;5073011;28;20240;-82
2023/04/12 08:39:00;;;;;;;1.45;1.35;;;;;;;;;;5081383;28;20238;-81
2023/04/12 08:41:28;;;;;;;1.58;1.30;;;;;;;;;;5109147;28;20193;-81
2023/04/12 08:43:56;;;;;;;3.30;1.23;;;;;;;;;;5112470;28;20204;-81
2023/04/12 08:46:24;;;;;;;3.22;1.60;;;;;;;;;;5112035;28;20216;-81
2023/04/12 08:48:55;;;;;;;1.50;1.13;;;;;;;;;;5104664;28;20181;-80
2023/04/12 08:51:23;;;;;;;2.90;1.15;;;;;;;;;;5110883;28;20255;-81
2023/04/12 08:53:52;;;;;;;2.33;1.10;;;;;;;;;;5113549;28;20220;-81
2023/04/12 08:56:23;;;;;;;1.60;1.50;;;;;;;;;;5114982;28;20229;-81
2023/04/12 08:58:52;;;;;;;1.50;1.40;;;;;;;;;;5116580;28;20202;-80
2023/04/12 09:01:22;;;;;;;1.25;1.00;;;;;;;;;;5114165;28;20486;-81
2023/04/12 09:03:49;;;;;;;1.10;1.10;;;;;;;;;;5101687;28;20287;-83
2023/04/12 09:06:17;;;;;;;1.48;1.00;;;;;;;;;;5103731;28;20255;-85
2023/04/12 09:08:55;;;;;;;1.20;1.10;;;;;;;;;;5099799;28;20200;-85
2023/04/12 09:11:26;;;;;;;2.20;0.90;;;;;;;;;;5101905;28;20266;-84
2023/04/12 09:13:55;;;;;;;1.42;1.33;;;;;;;;;;5100859;28;20263;-83
2023/04/12 09:16:36;;;;;;;1.20;1.10;;;;;;;;;;5099396;28;20220;-85
2023/04/12 09:19:05;;;;;;;1.38;1.27;;;;;;;;;;5098401;28;20232;-84
2023/04/12 09:21:33;;;;;;;1.10;1.00;;;;;;;;;;5099216;28;20200;-83
2023/04/12 09:24:08;;;;;;;1.80;1.10;;;;;;;;;;5099832;28;20200;-85
2023/04/12 09:26:37;;;;;;;1.90;1.10;;;;;;;;;;5097483;28;20761;-85
2023/04/12 09:29:05;;;;;;;1.30;1.20;;;;;;;;;;5097403;28;20223;-84
2023/04/12 09:31:33;;;;;;;1.40;1.00;;;;;;;;;;5099662;28;20292;-83
2023/04/12 09:34:08;;;;;;;1.33;1.00;;;;;;;;;;5098507;28;20216;-83
2023/04/12 09:36:39;;;;;;;1.20;1.00;;;;;;;;;;5100114;28;20291;-85
2023/04/12 09:39:08;;;;;;;1.10;1.00;;;;;;;;;;5099186;28;20211;-85
2023/04/12 09:41:36;;;;;;;1.58;1.02;;;;;;;;;;5098339;28;20208;-84
2023/04/12 09:44:04;;;;;;;1.48;1.23;;;;;;;;;;5099634;28;20215;-84
2023/04/12 09:46:32;;;;;;;1.20;1.10;;;;;;;;;;5101248;28;20663;-85
2023/04/12 09:49:02;;;;;;;1.63;1.25;;;;;;;;;;5101757;28;20663;-84
2023/04/12 09:51:31;;;;;;;2.17;1.00;;;;;;;;;;5103714;28;20222;-85
2023/04/12 09:54:01;;;;;;;2.53;1.30;;;;;;;;;;5107872;28;20280;-82
2023/04/12 09:56:31;;;;;;;1.08;1.08;;;;;;;;;;5121891;28;20204;-81
2023/04/12 09:59:03;;;;;;;1.58;1.48;;;;;;;;;;5121670;28;20208;-82
2023/04/12 10:01:33;;;;;;;2.30;1.20;;;;;;;;;;5121865;28;20227;-81
2023/04/12 10:04:01;;;;;;;0.98;0.98;;;;;;;;;;5121797;28;20184;-82
2023/04/12 10:06:30;;;;;;;1.00;1.00;;;;;;;;;;5121648;28;20203;-82
2023/04/12 10:08:57;;;;;;;0.75;0.75;;;;;;;;;;5110620;28;20633;-83
2023/04/12 10:11:27;;;;;;;1.10;1.00;;;;;;;;;;5109240;28;20200;-85
2023/04/12 10:13:55;;;;;;;1.10;1.00;;;;;;;;;;5107792;28;20232;-85
2023/04/12 10:16:24;;;;;;;1.27;0.90;;;;;;;;;;5109562;28;20243;-86
2023/04/12 10:18:52;;;;;;;1.17;1.17;;;;;;;;;;5096497;28;20200;-81
2023/04/12 10:21:20;;;;;;;0.90;0.90;;;;;;;;;;5095991;28;20561;-82
2023/04/12 10:23:47;;;;;;;0.98;0.73;;;;;;;;;;5095921;28;20211;-81
2023/04/12 10:26:16;;;;;;;0.90;0.90;;;;;;;;;;5095757;28;20306;-83
2023/04/12 10:28:45;;;;;;;1.00;1.00;;;;;;;;;;5095700;28;20288;-81
2023/04/12 10:31:31;;;;;;;0.70;0.70;;;;;;;;;;5096246;28;20657;-83
2023/04/12 10:34:00;;;;;;;0.68;0.68;;;;;;;;;;5096261;28;20204;-82
2023/04/12 10:36:54;;;;;;;0.80;0.80;;;;;;;;;;5095480;28;20244;-82
2023/04/12 10:39:38;;;;;;;0.70;0.70;;;;;;;;;;5095430;28;20688;-83
2023/04/12 10:42:24;;;;;;;0.73;0.73;;;;;;;;;;5095635;28;20197;-82
2023/04/12 10:44:52;;;;;;;0.70;0.70;;;;;;;;;;5095070;28;20283;-83
2023/04/12 10:48:00;;;;;;;0.85;0.85;;;;;;;;;;5096126;28;20711;-83
2023/04/12 10:50:29;;;;;;;0.90;0.90;;;;;;;;;;5096471;28;20235;-84
2023/04/12 10:53:23;;;;;;;0.85;0.68;;;;;;;;;;5094813;28;20204;-84
2023/04/12 10:55:51;;;;;;;0.73;0.73;;;;;;;;;;5075604;28;20225;-83
2023/04/12 10:58:57;;;;;;;1.10;1.00;;;;;;;;;;5098448;22;20231;-85
2023/04/12 11:01:24;;;;;;;0.65;0.65;;;;;;;;;;5083402;28;20227;-85
2023/04/12 11:04:18;;;;;;;0.60;0.60;;;;;;;;;;5095553;28;20235;-85
2023/04/12 11:07:09;;;;;;;0.73;0.73;;;;;;;;;;5096088;28;20198;-84
2023/04/12 11:09:42;;;;;;;0.80;0.80;;;;;;;;;;5095839;28;20191;-85
2023/04/12 11:12:14;;;;;;;0.90;0.90;;;;;;;;;;5095545;28;20656;-85
2023/04/12 11:14:46;;;;;;;0.90;0.90;;;;;;;;;;5095656;28;20307;-84
2023/04/12 11:17:26;;;;;;;0.60;0.60;;;;;;;;;;5104488;28;20210;-85
2023/04/12 11:19:58;;;;;;;0.80;0.80;;;;;;;;;;5115630;28;20625;-85
2023/04/12 11:22:29;;;;;;;0.70;0.70;;;;;;;;;;5113677;28;20299;-85
2023/04/12 11:24:58;;;;;;;0.70;0.70;;;;;;;;;;5095385;28;20224;-85
2023/04/12 11:27:28;;;;;;;2.15;0.80;;;;;;;;;;5095060;28;20645;-86
2023/04/12 11:29:58;;;;;;;1.30;0.77;;;;;;;;;;5098119;28;20303;-84
2023/04/12 11:32:28;;;;;;;0.60;0.60;;;;;;;;;;5115110;28;20424;-85
2023/04/12 11:34:58;;;;;;;0.60;0.60;;;;;;;;;;5115511;28;20212;-85
2023/04/12 11:37:26;;;;;;;0.70;0.70;;;;;;;;;;5112016;28;20191;-83
2023/04/12 11:39:57;;;;;;;0.80;0.80;;;;;;;;;;5111763;28;20647;-86
2023/04/12 11:42:26;;;;;;;0.70;0.70;;;;;;;;;;5096225;28;20211;-84
2023/04/12 11:44:54;;;;;;;0.60;0.60;;;;;;;;;;5094815;28;20292;-84
2023/04/12 11:47:24;;;;;;;0.70;0.70;;;;;;;;;;5104893;28;20206;-85
2023/04/12 11:49:53;;;;;;;0.80;0.80;;;;;;;;;;5115177;28;20275;-85
2023/04/12 11:52:29;;;;;;;1.08;0.90;;;;;;;;;;5113547;28;20204;-85
2023/04/12 11:54:58;;;;;;;0.82;0.82;;;;;;;;;;5095076;28;20286;-85
2023/04/12 11:57:27;;;;;;;0.88;0.88;;;;;;;;;;5094630;28;20212;-83
2023/04/12 11:59:58;;;;;;;0.80;0.80;;;;;;;;;;5094645;28;20203;-85
2023/04/12 12:02:26;;;;;;;0.88;0.88;;;;;;;;;;5094913;28;20211;-85
2023/04/12 12:04:54;;;;;;;1.50;0.90;;;;;;;;;;5094316;28;20203;-85
2023/04/12 12:07:24;;;;;;;0.80;0.80;;;;;;;;;;5094462;28;20200;-85
2023/04/12 12:09:51;;;;;;;0.60;0.60;;;;;;;;;;5093745;28;20235;-84
2023/04/12 12:12:19;;;;;;;0.90;0.90;;;;;;;;;;5094668;28;20717;-84
2023/04/12 12:14:47;;;;;;;0.80;0.80;;;;;;;;;;5095116;28;20622;-84
2023/04/12 12:17:16;;;;;;;0.65;0.65;;;;;;;;;;5094534;28;20187;-82
2023/04/12 12:19:45;;;;;;;0.80;0.80;;;;;;;;;;5094410;28;20288;-87
2023/04/12 12:22:14;;;;;;;0.68;0.68;;;;;;;;;;5094320;28;20285;-85
2023/04/12 12:24:49;;;;;;;0.80;0.80;;;;;;;;;;5094763;28;20228;-83
2023/04/12 12:27:20;;;;;;;0.63;0.63;;;;;;;;;;5094397;28;20660;-84
2023/04/12 12:29:52;;;;;;;0.70;0.70;;;;;;;;;;5094336;28;20208;-85
2023/04/12 12:32:21;;;;;;;0.55;0.55;;;;;;;;;;5094528;28;20207;-85
2023/04/12 12:34:54;;;;;;;0.60;0.60;;;;;;;;;;5093873;28;20196;-85
2023/04/12 12:37:24;;;;;;;0.68;0.68;;;;;;;;;;5093839;28;20224;-87
2023/04/12 12:40:12;;;;;;;0.70;0.70;;;;;;;;;;5099592;28;20202;-87
2023/04/12 12:42:48;;;;;;;1.08;0.80;;;;;;;;;;5093838;28;20196;-86
2023/04/12 12:45:17;;;;;;;0.57;0.57;;;;;;;;;;5094125;28;20556;-88
2023/04/12 12:47:51;;;;;;;0.70;0.70;;;;;;;;;;5108127;28;20294;-85
2023/04/12 12:50:21;;;;;;;0.75;0.75;;;;;;;;;;5112860;28;20302;-85
2023/04/12 12:52:49;;;;;;;0.60;0.60;;;;;;;;;;5108503;28;20234;-84
2023/04/12 12:55:20;;;;;;;0.60;0.60;;;;;;;;;;5093732;28;20266;-85
2023/04/12 12:57:48;;;;;;;1.15;1.15;;;;;;;;;;5093454;28;20653;-85
2023/04/12 13:00:18;;;;;;;0.70;0.70;;;;;;;;;;5093811;28;20603;-87
2023/04/12 13:02:47;;;;;;;0.93;0.70;;;;;;;;;;5094010;28;20281;-85
2023/04/12 13:05:14;;;;;;;0.60;0.60;;;;;;;;;;5093080;28;20196;-86
2023/04/12 13:07:42;;;;;;;0.75;0.75;;;;;;;;;;5093110;28;20297;-85
2023/04/12 13:10:10;;;;;;;0.60;0.60;;;;;;;;;;5092879;28;20227;-86
2023/04/12 13:12:39;;;;;;;0.70;0.70;;;;;;;;;;5093056;28;20248;-87
2023/04/12 13:15:10;;;;;;;0.85;0.85;;;;;;;;;;5093706;28;20206;-84
2023/04/12 13:17:40;;;;;;;0.90;0.90;;;;;;;;;;5093518;28;20220;-85
2023/04/12 13:20:08;;;;;;;1.63;1.52;;;;;;;;;;5092183;28;20223;-85
2023/04/12 13:22:36;;;;;;;1.02;1.02;;;;;;;;;;5096493;28;20207;-86
2023/04/12 13:25:03;;;;;;;0.68;0.68;;;;;;;;;;5113701;28;20291;-84
2023/04/12 13:27:31;;;;;;;0.82;0.82;;;;;;;;;;5112423;28;20639;-84
2023/04/12 13:30:00;;;;;;;0.70;0.70;;;;;;;;;;5093028;28;20291;-82
2023/04/12 13:32:28;;;;;;;0.80;0.80;;;;;;;;;;5093493;28;20287;-83
2023/04/12 13:34:55;;;;;;;1.13;0.90;;;;;;;;;;5092954;28;20196;-85
2023/04/12 13:37:23;;;;;;;2.22;2.05;;;;;;;;;;5092789;28;20409;-84
2023/04/12 13:39:51;;;;;;;1.77;1.67;;;;;;;;;;5092816;28;20295;-85
2023/04/12 13:42:18;;;;;;;1.20;1.10;;;;;;;;;;5094125;28;20570;-85
2023/04/12 13:44:47;;;;;;;1.00;0.98;;;;;;;;;;5094316;28;20629;-84
2023/04/12 13:50:08;;;;;;;0.70;0.70;;;;;;;;;;5112213;28;20760;-84
2023/04/12 13:52:49;;;;;;;0.68;0.68;;;;;;;;;;5114068;28;20286;-85
2023/04/12 13:55:39;;;;;;;0.80;0.80;;;;;;;;;;5114113;28;20199;-85
2023/04/12 13:58:06;;;;;;;0.70;0.70;;;;;;;;;;5114126;28;20215;-84
2023/04/12 14:00:34;;;;;;;0.70;0.70;;;;;;;;;;5113031;28;20672;-84
2023/04/12 14:03:03;;;;;;;1.00;1.00;;;;;;;;;;5114283;28;20291;-85
2023/04/12 14:05:30;;;;;;;0.80;0.80;;;;;;;;;;5113148;28;20204;-83
2023/04/12 14:07:58;;;;;;;0.75;0.70;;;;;;;;;;5113432;28;20325;-85
2023/04/12 14:10:25;;;;;;;0.90;0.90;;;;;;;;;;5113643;28;20287;-85
2023/04/12 14:12:53;;;;;;;0.65;0.65;;;;;;;;;;5113668;28;20279;-85
2023/04/12 14:15:20;;;;;;;1.15;1.05;;;;;;;;;;5113397;28;20231;-83
2023/04/12 14:17:48;;;;;;;0.70;0.70;;;;;;;;;;5113443;28;20219;-84
2023/04/12 14:20:17;;;;;;;0.65;0.65;;;;;;;;;;5113026;28;20751;-84
2023/04/12 14:22:44;;;;;;;0.80;0.80;;;;;;;;;;5107573;22;20319;-86
2023/04/12 14:25:12;;;;;;;0.70;0.70;;;;;;;;;;5092146;28;20208;-86
2023/04/12 14:27:39;;;;;;;0.50;0.50;;;;;;;;;;5092617;28;20279;-86
2023/04/12 14:30:08;;;;;;;0.60;0.60;;;;;;;;;;5092423;28;20292;-87
2023/04/12 14:32:36;;;;;;;0.70;0.70;;;;;;;;;;5094932;28;20224;-87
2023/04/12 14:35:04;;;;;;;0.57;0.57;;;;;;;;;;5095425;28;20307;-86
2023/04/12 14:37:33;;;;;;;0.50;0.50;;;;;;;;;;5095573;28;20223;-86
2023/04/12 14:40:00;;;;;;;0.40;0.40;;;;;;;;;;5095955;28;20290;-86
2023/04/12 14:42:28;;;;;;;0.40;0.40;;;;;;;;;;5095574;28;20227;-86
2023/04/12 14:44:55;;;;;;;0.30;0.30;;;;;;;;;;5095651;28;20649;-86
2023/04/12 14:47:23;;;;;;;0.60;0.60;;;;;;;;;;5085988;28;20197;-87
2023/04/12 14:49:51;;;;;;;0.52;0.52;;;;;;;;;;5075424;28;20201;-86
2023/04/12 14:52:18;;;;;;;0.70;0.70;;;;;;;;;;5075976;28;20252;-86
2023/04/12 14:54:54;;;;;;;0.40;0.40;;;;;;;;;;5075783;28;20305;-86
2023/04/12 14:57:22;;;;;;;0.50;0.50;;;;;;;;;;5075679;28;20263;-86
2023/04/12 14:59:49;;;;;;;0.60;0.60;;;;;;;;;;5075970;28;20304;-86